sensor_id;sensor_type;location;lat;lon;timestamp;P1;durP1;ratioP1;P2;durP2;ratioP2
10031;SDS011;5056;44.272;19.892;2022-11-20T00:04:25;48.80;;;38.27;;
10031;SDS011;5056;44.272;19.892;2022-11-20T00:06:52;48.00;;;38.93;;
10031;SDS011;5056;44.272;19.892;2022-11-20T00:09:19;66.03;;;51.00;;
10031;SDS011;5056;44.272;19.892;2022-11-20T00:11:46;70.67;;;58.93;;
10031;SDS011;5056;44.272;19.892;2022-11-20T00:14:13;54.40;;;43.40;;
10031;SDS011;5056;44.272;19.892;2022-11-20T00:16:41;53.10;;;45.37;;
10031;SDS011;5056;44.272;19.892;2022-11-20T00:19:09;56.60;;;50.17;;
10031;SDS011;5056;44.272;19.892;2022-11-20T00:21:41;49.97;;;43.17;;
10031;SDS011;5056;44.272;19.892;2022-11-20T00:24:08;52.87;;;42.40;;
10031;SDS011;5056;44.272;19.892;2022-11-20T00:26:36;44.30;;;36.53;;
10031;SDS011;5056;44.272;19.892;2022-11-20T00:29:03;41.07;;;36.40;;
10031;SDS011;5056;44.272;19.892;2022-11-20T00:31:30;52.90;;;47.17;;
10031;SDS011;5056;44.272;19.892;2022-11-20T00:33:58;41.93;;;37.33;;
10031;SDS011;5056;44.272;19.892;2022-11-20T00:36:26;40.27;;;35.80;;
10031;SDS011;5056;44.272;19.892;2022-11-20T00:38:57;41.53;;;37.17;;
10031;SDS011;5056;44.272;19.892;2022-11-20T00:41:25;40.27;;;35.87;;
10031;SDS011;5056;44.272;19.892;2022-11-20T00:43:52;43.37;;;38.63;;
10031;SDS011;5056;44.272;19.892;2022-11-20T00:46:21;38.73;;;34.63;;
10031;SDS011;5056;44.272;19.892;2022-11-20T00:48:49;35.33;;;31.47;;
10031;SDS011;5056;44.272;19.892;2022-11-20T00:51:16;36.57;;;30.10;;
10031;SDS011;5056;44.272;19.892;2022-11-20T00:53:45;39.90;;;33.47;;
10031;SDS011;5056;44.272;19.892;2022-11-20T00:56:15;31.40;;;28.00;;
10031;SDS011;5056;44.272;19.892;2022-11-20T00:58:45;33.57;;;29.97;;
10031;SDS011;5056;44.272;19.892;2022-11-20T01:01:21;31.60;;;27.00;;
10031;SDS011;5056;44.272;19.892;2022-11-20T01:03:50;29.23;;;26.23;;
10031;SDS011;5056;44.272;19.892;2022-11-20T01:06:19;25.47;;;22.87;;
10031;SDS011;5056;44.272;19.892;2022-11-20T01:08:47;28.07;;;24.73;;
10031;SDS011;5056;44.272;19.892;2022-11-20T01:11:18;27.77;;;24.87;;
10031;SDS011;5056;44.272;19.892;2022-11-20T01:13:47;31.63;;;28.27;;
10031;SDS011;5056;44.272;19.892;2022-11-20T01:16:17;31.90;;;27.87;;
10031;SDS011;5056;44.272;19.892;2022-11-20T01:18:46;32.80;;;29.23;;
10031;SDS011;5056;44.272;19.892;2022-11-20T01:21:14;32.90;;;29.33;;
10031;SDS011;5056;44.272;19.892;2022-11-20T01:23:43;37.93;;;33.30;;
10031;SDS011;5056;44.272;19.892;2022-11-20T01:26:14;33.60;;;30.03;;
10031;SDS011;5056;44.272;19.892;2022-11-20T01:28:43;34.77;;;30.43;;
10031;SDS011;5056;44.272;19.892;2022-11-20T01:31:11;36.23;;;30.50;;
10031;SDS011;5056;44.272;19.892;2022-11-20T01:33:42;35.20;;;30.37;;
10031;SDS011;5056;44.272;19.892;2022-11-20T01:36:11;34.50;;;28.53;;
10031;SDS011;5056;44.272;19.892;2022-11-20T01:38:38;30.83;;;27.50;;
10031;SDS011;5056;44.272;19.892;2022-11-20T01:41:06;32.13;;;26.97;;
10031;SDS011;5056;44.272;19.892;2022-11-20T01:43:36;34.73;;;29.33;;
10031;SDS011;5056;44.272;19.892;2022-11-20T01:46:11;35.80;;;30.40;;
10031;SDS011;5056;44.272;19.892;2022-11-20T01:48:43;35.00;;;28.00;;
10031;SDS011;5056;44.272;19.892;2022-11-20T01:51:15;31.73;;;27.50;;
10031;SDS011;5056;44.272;19.892;2022-11-20T01:53:45;33.03;;;28.00;;
10031;SDS011;5056;44.272;19.892;2022-11-20T01:56:13;33.47;;;28.23;;
10031;SDS011;5056;44.272;19.892;2022-11-20T01:58:43;36.27;;;29.00;;
10031;SDS011;5056;44.272;19.892;2022-11-20T02:01:13;33.03;;;29.00;;
10031;SDS011;5056;44.272;19.892;2022-11-20T02:03:40;34.97;;;28.10;;
10031;SDS011;5056;44.272;19.892;2022-11-20T02:06:10;30.87;;;27.57;;
10031;SDS011;5056;44.272;19.892;2022-11-20T02:08:39;28.60;;;25.60;;
10031;SDS011;5056;44.272;19.892;2022-11-20T02:11:06;27.77;;;24.40;;
10031;SDS011;5056;44.272;19.892;2022-11-20T02:13:34;26.17;;;23.17;;
10031;SDS011;5056;44.272;19.892;2022-11-20T02:16:11;26.97;;;24.07;;
10031;SDS011;5056;44.272;19.892;2022-11-20T02:18:40;27.60;;;22.93;;
10031;SDS011;5056;44.272;19.892;2022-11-20T02:24:31;21.73;;;19.53;;
10031;SDS011;5056;44.272;19.892;2022-11-20T02:26:59;23.70;;;21.20;;
10031;SDS011;5056;44.272;19.892;2022-11-20T02:29:31;22.53;;;19.60;;
10031;SDS011;5056;44.272;19.892;2022-11-20T02:32:00;28.33;;;23.27;;
10031;SDS011;5056;44.272;19.892;2022-11-20T02:34:27;24.33;;;21.70;;
10031;SDS011;5056;44.272;19.892;2022-11-20T02:36:56;26.50;;;22.67;;
10031;SDS011;5056;44.272;19.892;2022-11-20T02:39:24;27.37;;;23.10;;
10031;SDS011;5056;44.272;19.892;2022-11-20T02:41:53;21.90;;;19.73;;
10031;SDS011;5056;44.272;19.892;2022-11-20T02:44:20;23.20;;;20.67;;
10031;SDS011;5056;44.272;19.892;2022-11-20T02:46:48;24.73;;;21.03;;
10031;SDS011;5056;44.272;19.892;2022-11-20T02:49:14;21.17;;;17.50;;
10031;SDS011;5056;44.272;19.892;2022-11-20T02:51:42;21.80;;;19.60;;
10031;SDS011;5056;44.272;19.892;2022-11-20T02:54:09;20.17;;;18.10;;
10031;SDS011;5056;44.272;19.892;2022-11-20T02:56:37;20.97;;;18.73;;
10031;SDS011;5056;44.272;19.892;2022-11-20T02:59:07;22.27;;;19.87;;
10031;SDS011;5056;44.272;19.892;2022-11-20T03:01:34;24.17;;;21.30;;
10031;SDS011;5056;44.272;19.892;2022-11-20T03:04:01;25.50;;;21.43;;
10031;SDS011;5056;44.272;19.892;2022-11-20T03:06:29;24.80;;;22.27;;
10031;SDS011;5056;44.272;19.892;2022-11-20T03:08:56;26.57;;;22.87;;
10031;SDS011;5056;44.272;19.892;2022-11-20T03:11:30;26.47;;;23.67;;
10031;SDS011;5056;44.272;19.892;2022-11-20T03:13:57;24.77;;;22.17;;
10031;SDS011;5056;44.272;19.892;2022-11-20T03:16:26;24.57;;;20.93;;
10031;SDS011;5056;44.272;19.892;2022-11-20T03:18:53;24.07;;;21.17;;
10031;SDS011;5056;44.272;19.892;2022-11-20T03:21:20;21.70;;;18.60;;
10031;SDS011;5056;44.272;19.892;2022-11-20T03:23:47;25.43;;;20.07;;
10031;SDS011;5056;44.272;19.892;2022-11-20T03:26:15;19.30;;;17.30;;
10031;SDS011;5056;44.272;19.892;2022-11-20T03:28:45;17.80;;;15.93;;
10031;SDS011;5056;44.272;19.892;2022-11-20T03:31:14;17.90;;;16.07;;
10031;SDS011;5056;44.272;19.892;2022-11-20T03:33:44;20.83;;;17.77;;
10031;SDS011;5056;44.272;19.892;2022-11-20T03:36:12;20.20;;;16.60;;
10031;SDS011;5056;44.272;19.892;2022-11-20T03:38:40;17.77;;;16.03;;
10031;SDS011;5056;44.272;19.892;2022-11-20T03:41:08;18.10;;;16.20;;
10031;SDS011;5056;44.272;19.892;2022-11-20T03:43:36;17.80;;;16.00;;
10031;SDS011;5056;44.272;19.892;2022-11-20T03:46:04;15.40;;;13.80;;
10031;SDS011;5056;44.272;19.892;2022-11-20T03:48:33;15.10;;;13.60;;
10031;SDS011;5056;44.272;19.892;2022-11-20T03:51:10;14.93;;;13.43;;
10031;SDS011;5056;44.272;19.892;2022-11-20T03:53:38;14.50;;;13.00;;
10031;SDS011;5056;44.272;19.892;2022-11-20T03:56:08;14.23;;;12.73;;
10031;SDS011;5056;44.272;19.892;2022-11-20T04:01:27;14.23;;;12.70;;
10031;SDS011;5056;44.272;19.892;2022-11-20T04:03:55;13.07;;;11.70;;
10031;SDS011;5056;44.272;19.892;2022-11-20T04:06:24;14.30;;;12.80;;
10031;SDS011;5056;44.272;19.892;2022-11-20T04:08:53;16.37;;;13.67;;
10031;SDS011;5056;44.272;19.892;2022-11-20T04:11:22;14.93;;;12.83;;
10031;SDS011;5056;44.272;19.892;2022-11-20T04:13:51;14.87;;;13.37;;
10031;SDS011;5056;44.272;19.892;2022-11-20T04:16:19;15.57;;;13.70;;
10031;SDS011;5056;44.272;19.892;2022-11-20T04:18:47;15.27;;;13.33;;
10031;SDS011;5056;44.272;19.892;2022-11-20T04:21:17;15.57;;;12.93;;
10031;SDS011;5056;44.272;19.892;2022-11-20T04:23:46;16.07;;;13.20;;
10031;SDS011;5056;44.272;19.892;2022-11-20T04:26:13;13.57;;;12.13;;
10031;SDS011;5056;44.272;19.892;2022-11-20T04:28:40;14.20;;;11.60;;
10031;SDS011;5056;44.272;19.892;2022-11-20T04:31:08;11.93;;;10.70;;
10031;SDS011;5056;44.272;19.892;2022-11-20T04:33:36;12.20;;;10.90;;
10031;SDS011;5056;44.272;19.892;2022-11-20T04:36:04;12.00;;;10.73;;
10031;SDS011;5056;44.272;19.892;2022-11-20T04:38:46;12.30;;;10.70;;
10031;SDS011;5056;44.272;19.892;2022-11-20T04:41:14;12.07;;;10.87;;
10031;SDS011;5056;44.272;19.892;2022-11-20T04:43:45;12.67;;;11.43;;
10031;SDS011;5056;44.272;19.892;2022-11-20T04:46:14;12.07;;;10.87;;
10031;SDS011;5056;44.272;19.892;2022-11-20T04:48:41;13.57;;;12.30;;
10031;SDS011;5056;44.272;19.892;2022-11-20T04:51:09;12.07;;;10.87;;
10031;SDS011;5056;44.272;19.892;2022-11-20T04:53:37;11.17;;;10.07;;
10031;SDS011;5056;44.272;19.892;2022-11-20T04:56:06;11.30;;;10.20;;
10031;SDS011;5056;44.272;19.892;2022-11-20T04:58:35;10.87;;;9.87;;
10031;SDS011;5056;44.272;19.892;2022-11-20T05:01:03;11.90;;;10.70;;
10031;SDS011;5056;44.272;19.892;2022-11-20T05:03:30;10.03;;;9.03;;
10031;SDS011;5056;44.272;19.892;2022-11-20T05:05:59;10.37;;;9.27;;
10031;SDS011;5056;44.272;19.892;2022-11-20T05:08:28;9.63;;;8.73;;
10031;SDS011;5056;44.272;19.892;2022-11-20T05:10:59;10.37;;;9.37;;
10031;SDS011;5056;44.272;19.892;2022-11-20T05:13:30;8.93;;;8.13;;
10031;SDS011;5056;44.272;19.892;2022-11-20T05:16:00;9.60;;;8.80;;
10031;SDS011;5056;44.272;19.892;2022-11-20T05:21:05;9.90;;;8.87;;
10031;SDS011;5056;44.272;19.892;2022-11-20T05:23:33;12.33;;;11.03;;
10031;SDS011;5056;44.272;19.892;2022-11-20T05:26:00;12.70;;;11.07;;
10031;SDS011;5056;44.272;19.892;2022-11-20T05:28:30;14.93;;;12.83;;
10031;SDS011;5056;44.272;19.892;2022-11-20T05:31:03;12.43;;;11.23;;
10031;SDS011;5056;44.272;19.892;2022-11-20T05:33:32;11.77;;;10.53;;
10031;SDS011;5056;44.272;19.892;2022-11-20T05:36:01;11.50;;;9.77;;
10031;SDS011;5056;44.272;19.892;2022-11-20T05:38:28;10.67;;;9.57;;
10031;SDS011;5056;44.272;19.892;2022-11-20T05:40:55;11.03;;;9.90;;
10031;SDS011;5056;44.272;19.892;2022-11-20T05:43:22;10.37;;;9.37;;
10031;SDS011;5056;44.272;19.892;2022-11-20T05:45:53;11.47;;;10.40;;
10031;SDS011;5056;44.272;19.892;2022-11-20T05:48:20;11.80;;;10.70;;
10031;SDS011;5056;44.272;19.892;2022-11-20T05:50:48;10.40;;;9.50;;
10031;SDS011;5056;44.272;19.892;2022-11-20T05:53:17;12.43;;;11.20;;
10031;SDS011;5056;44.272;19.892;2022-11-20T05:55:44;9.77;;;8.87;;
10031;SDS011;5056;44.272;19.892;2022-11-20T05:58:12;11.37;;;10.07;;
10031;SDS011;5056;44.272;19.892;2022-11-20T06:00:40;10.87;;;9.80;;
10031;SDS011;5056;44.272;19.892;2022-11-20T06:03:09;14.50;;;12.63;;
10031;SDS011;5056;44.272;19.892;2022-11-20T06:05:36;14.57;;;12.80;;
10031;SDS011;5056;44.272;19.892;2022-11-20T06:08:04;13.83;;;12.17;;
10031;SDS011;5056;44.272;19.892;2022-11-20T06:10:31;13.37;;;12.03;;
10031;SDS011;5056;44.272;19.892;2022-11-20T06:12:58;20.30;;;15.67;;
10031;SDS011;5056;44.272;19.892;2022-11-20T06:15:25;14.77;;;12.70;;
10031;SDS011;5056;44.272;19.892;2022-11-20T06:17:53;13.30;;;11.47;;
10031;SDS011;5056;44.272;19.892;2022-11-20T06:20:26;14.17;;;12.77;;
10031;SDS011;5056;44.272;19.892;2022-11-20T06:22:53;14.27;;;12.70;;
10031;SDS011;5056;44.272;19.892;2022-11-20T06:25:20;13.27;;;11.87;;
10031;SDS011;5056;44.272;19.892;2022-11-20T06:27:48;11.97;;;10.77;;
10031;SDS011;5056;44.272;19.892;2022-11-20T06:30:15;11.73;;;10.60;;
10031;SDS011;5056;44.272;19.892;2022-11-20T06:32:43;11.60;;;10.43;;
10031;SDS011;5056;44.272;19.892;2022-11-20T06:35:10;10.77;;;9.87;;
10031;SDS011;5056;44.272;19.892;2022-11-20T06:37:38;13.80;;;12.40;;
10031;SDS011;5056;44.272;19.892;2022-11-20T06:40:05;14.30;;;12.90;;
10031;SDS011;5056;44.272;19.892;2022-11-20T06:42:34;13.63;;;12.20;;
10031;SDS011;5056;44.272;19.892;2022-11-20T06:47:31;16.90;;;15.30;;
10031;SDS011;5056;44.272;19.892;2022-11-20T06:49:59;14.67;;;13.27;;
10031;SDS011;5056;44.272;19.892;2022-11-20T06:52:27;14.53;;;13.13;;
10031;SDS011;5056;44.272;19.892;2022-11-20T06:54:55;15.13;;;13.70;;
10031;SDS011;5056;44.272;19.892;2022-11-20T06:57:23;15.40;;;13.90;;
10031;SDS011;5056;44.272;19.892;2022-11-20T06:59:53;16.77;;;15.00;;
10031;SDS011;5056;44.272;19.892;2022-11-20T07:02:20;18.07;;;16.27;;
10031;SDS011;5056;44.272;19.892;2022-11-20T07:04:49;16.43;;;14.83;;
10031;SDS011;5056;44.272;19.892;2022-11-20T07:07:16;16.27;;;14.60;;
10031;SDS011;5056;44.272;19.892;2022-11-20T07:09:43;20.77;;;18.67;;
10031;SDS011;5056;44.272;19.892;2022-11-20T07:12:11;19.27;;;17.37;;
10031;SDS011;5056;44.272;19.892;2022-11-20T07:14:38;16.37;;;14.67;;
10031;SDS011;5056;44.272;19.892;2022-11-20T07:17:07;15.50;;;14.10;;
10031;SDS011;5056;44.272;19.892;2022-11-20T07:19:37;15.83;;;14.33;;
10031;SDS011;5056;44.272;19.892;2022-11-20T07:22:04;15.50;;;13.90;;
10031;SDS011;5056;44.272;19.892;2022-11-20T07:24:33;23.43;;;21.23;;
10031;SDS011;5056;44.272;19.892;2022-11-20T07:27:01;20.70;;;18.70;;
10031;SDS011;5056;44.272;19.892;2022-11-20T07:29:33;18.27;;;16.37;;
10031;SDS011;5056;44.272;19.892;2022-11-20T07:31:59;16.80;;;15.03;;
10031;SDS011;5056;44.272;19.892;2022-11-20T07:34:27;17.57;;;15.70;;
10031;SDS011;5056;44.272;19.892;2022-11-20T07:36:54;19.63;;;17.63;;
10031;SDS011;5056;44.272;19.892;2022-11-20T07:39:21;19.60;;;17.10;;
10031;SDS011;5056;44.272;19.892;2022-11-20T07:41:48;21.57;;;19.27;;
10031;SDS011;5056;44.272;19.892;2022-11-20T07:44:16;26.90;;;22.23;;
10031;SDS011;5056;44.272;19.892;2022-11-20T07:46:45;25.40;;;22.23;;
10031;SDS011;5056;44.272;19.892;2022-11-20T07:49:13;23.50;;;21.00;;
10031;SDS011;5056;44.272;19.892;2022-11-20T07:51:42;21.07;;;18.87;;
10031;SDS011;5056;44.272;19.892;2022-11-20T07:54:09;18.93;;;17.03;;
10031;SDS011;5056;44.272;19.892;2022-11-20T07:56:36;18.93;;;15.13;;
10031;SDS011;5056;44.272;19.892;2022-11-20T07:59:03;21.47;;;19.17;;
10031;SDS011;5056;44.272;19.892;2022-11-20T08:01:32;22.27;;;19.90;;
10031;SDS011;5056;44.272;19.892;2022-11-20T08:04:03;25.23;;;22.63;;
10031;SDS011;5056;44.272;19.892;2022-11-20T08:06:31;30.70;;;27.50;;
10031;SDS011;5056;44.272;19.892;2022-11-20T08:08:58;36.70;;;32.70;;
10031;SDS011;5056;44.272;19.892;2022-11-20T08:11:27;20.97;;;18.70;;
10031;SDS011;5056;44.272;19.892;2022-11-20T08:14:12;19.10;;;17.20;;
10031;SDS011;5056;44.272;19.892;2022-11-20T08:16:39;19.03;;;17.10;;
10031;SDS011;5056;44.272;19.892;2022-11-20T08:19:10;13.70;;;12.40;;
10031;SDS011;5056;44.272;19.892;2022-11-20T08:21:38;12.47;;;11.27;;
10031;SDS011;5056;44.272;19.892;2022-11-20T08:24:06;12.03;;;10.83;;
10031;SDS011;5056;44.272;19.892;2022-11-20T08:26:34;14.30;;;12.87;;
10031;SDS011;5056;44.272;19.892;2022-11-20T08:29:02;15.30;;;13.67;;
10031;SDS011;5056;44.272;19.892;2022-11-20T08:31:30;16.97;;;15.07;;
10031;SDS011;5056;44.272;19.892;2022-11-20T08:33:59;15.17;;;13.57;;
10031;SDS011;5056;44.272;19.892;2022-11-20T08:36:33;13.17;;;11.87;;
10031;SDS011;5056;44.272;19.892;2022-11-20T08:39:01;13.10;;;11.67;;
10031;SDS011;5056;44.272;19.892;2022-11-20T08:41:30;12.83;;;11.53;;
10031;SDS011;5056;44.272;19.892;2022-11-20T08:43:58;13.30;;;11.93;;
10031;SDS011;5056;44.272;19.892;2022-11-20T08:46:28;13.40;;;11.53;;
10031;SDS011;5056;44.272;19.892;2022-11-20T08:48:59;14.80;;;12.20;;
10031;SDS011;5056;44.272;19.892;2022-11-20T08:51:27;15.60;;;13.93;;
10031;SDS011;5056;44.272;19.892;2022-11-20T08:53:58;16.23;;;14.73;;
10031;SDS011;5056;44.272;19.892;2022-11-20T08:56:25;15.63;;;14.00;;
10031;SDS011;5056;44.272;19.892;2022-11-20T08:58:52;16.67;;;14.57;;
10031;SDS011;5056;44.272;19.892;2022-11-20T09:01:20;15.10;;;13.53;;
10031;SDS011;5056;44.272;19.892;2022-11-20T09:03:48;11.93;;;10.73;;
10031;SDS011;5056;44.272;19.892;2022-11-20T09:06:16;14.77;;;13.07;;
10031;SDS011;5056;44.272;19.892;2022-11-20T09:08:45;15.80;;;14.20;;
10031;SDS011;5056;44.272;19.892;2022-11-20T09:11:11;15.83;;;14.23;;
10031;SDS011;5056;44.272;19.892;2022-11-20T09:13:39;23.73;;;20.37;;
10031;SDS011;5056;44.272;19.892;2022-11-20T09:16:07;23.23;;;20.83;;
10031;SDS011;5056;44.272;19.892;2022-11-20T09:18:36;22.50;;;20.10;;
10031;SDS011;5056;44.272;19.892;2022-11-20T09:21:04;25.87;;;20.13;;
10031;SDS011;5056;44.272;19.892;2022-11-20T09:23:33;20.80;;;18.50;;
10031;SDS011;5056;44.272;19.892;2022-11-20T09:26:04;27.67;;;22.03;;
10031;SDS011;5056;44.272;19.892;2022-11-20T09:28:33;47.50;;;33.27;;
10031;SDS011;5056;44.272;19.892;2022-11-20T09:31:03;85.90;;;58.50;;
10031;SDS011;5056;44.272;19.892;2022-11-20T09:33:31;88.27;;;59.43;;
10031;SDS011;5056;44.272;19.892;2022-11-20T09:35:59;99.77;;;66.53;;
10031;SDS011;5056;44.272;19.892;2022-11-20T09:38:26;49.07;;;35.87;;
10031;SDS011;5056;44.272;19.892;2022-11-20T09:40:55;47.27;;;33.40;;
10031;SDS011;5056;44.272;19.892;2022-11-20T09:43:28;25.83;;;21.57;;
10031;SDS011;5056;44.272;19.892;2022-11-20T09:46:04;38.37;;;31.07;;
10031;SDS011;5056;44.272;19.892;2022-11-20T09:51:26;43.67;;;37.40;;
10031;SDS011;5056;44.272;19.892;2022-11-20T09:54:05;31.23;;;26.73;;
10031;SDS011;5056;44.272;19.892;2022-11-20T09:56:36;35.93;;;28.33;;
10031;SDS011;5056;44.272;19.892;2022-11-20T09:59:07;31.53;;;27.10;;
10031;SDS011;5056;44.272;19.892;2022-11-20T10:01:40;23.43;;;20.93;;
10031;SDS011;5056;44.272;19.892;2022-11-20T10:04:10;24.43;;;22.00;;
10031;SDS011;5056;44.272;19.892;2022-11-20T10:06:42;21.80;;;18.57;;
10031;SDS011;5056;44.272;19.892;2022-11-20T10:11:58;21.73;;;19.43;;
10031;SDS011;5056;44.272;19.892;2022-11-20T10:14:37;27.30;;;24.37;;
10031;SDS011;5056;44.272;19.892;2022-11-20T10:17:15;26.03;;;21.60;;
10031;SDS011;5056;44.272;19.892;2022-11-20T10:19:50;19.87;;;17.77;;
10031;SDS011;5056;44.272;19.892;2022-11-20T10:22:27;19.77;;;17.70;;
10031;SDS011;5056;44.272;19.892;2022-11-20T10:25:03;20.10;;;18.00;;
10031;SDS011;5056;44.272;19.892;2022-11-20T10:27:45;18.70;;;16.70;;
10031;SDS011;5056;44.272;19.892;2022-11-20T10:30:24;17.40;;;15.43;;
10031;SDS011;5056;44.272;19.892;2022-11-20T10:32:52;18.63;;;16.63;;
10031;SDS011;5056;44.272;19.892;2022-11-20T10:35:23;19.97;;;17.87;;
10031;SDS011;5056;44.272;19.892;2022-11-20T10:37:54;23.03;;;19.30;;
10031;SDS011;5056;44.272;19.892;2022-11-20T10:40:27;19.97;;;16.90;;
10031;SDS011;5056;44.272;19.892;2022-11-20T10:42:58;23.50;;;19.40;;
10031;SDS011;5056;44.272;19.892;2022-11-20T10:45:33;20.60;;;18.10;;
10031;SDS011;5056;44.272;19.892;2022-11-20T10:48:08;21.03;;;17.70;;
10031;SDS011;5056;44.272;19.892;2022-11-20T10:50:47;22.43;;;17.93;;
10031;SDS011;5056;44.272;19.892;2022-11-20T10:53:29;20.53;;;16.70;;
10031;SDS011;5056;44.272;19.892;2022-11-20T10:56:10;18.47;;;16.10;;
10031;SDS011;5056;44.272;19.892;2022-11-20T10:58:45;18.53;;;15.63;;
10031;SDS011;5056;44.272;19.892;2022-11-20T11:01:19;17.97;;;16.17;;
10031;SDS011;5056;44.272;19.892;2022-11-20T11:03:48;18.27;;;16.27;;
10031;SDS011;5056;44.272;19.892;2022-11-20T11:06:18;16.73;;;14.93;;
10031;SDS011;5056;44.272;19.892;2022-11-20T11:08:48;19.67;;;15.30;;
10031;SDS011;5056;44.272;19.892;2022-11-20T11:11:19;17.83;;;15.63;;
10031;SDS011;5056;44.272;19.892;2022-11-20T11:13:48;17.07;;;15.03;;
10031;SDS011;5056;44.272;19.892;2022-11-20T11:16:21;19.27;;;17.17;;
10031;SDS011;5056;44.272;19.892;2022-11-20T11:18:51;23.73;;;18.43;;
10031;SDS011;5056;44.272;19.892;2022-11-20T11:21:29;23.63;;;18.63;;
10031;SDS011;5056;44.272;19.892;2022-11-20T11:23:57;23.37;;;18.93;;
10031;SDS011;5056;44.272;19.892;2022-11-20T11:26:26;25.20;;;20.07;;
10031;SDS011;5056;44.272;19.892;2022-11-20T11:28:54;24.57;;;19.13;;
10031;SDS011;5056;44.272;19.892;2022-11-20T11:31:26;20.27;;;16.93;;
10031;SDS011;5056;44.272;19.892;2022-11-20T11:34:05;18.87;;;14.80;;
10031;SDS011;5056;44.272;19.892;2022-11-20T11:36:32;20.47;;;17.83;;
10031;SDS011;5056;44.272;19.892;2022-11-20T11:39:02;23.07;;;15.53;;
10031;SDS011;5056;44.272;19.892;2022-11-20T11:41:30;16.73;;;15.03;;
10031;SDS011;5056;44.272;19.892;2022-11-20T11:44:00;17.20;;;14.40;;
10031;SDS011;5056;44.272;19.892;2022-11-20T11:46:51;27.93;;;22.37;;
10031;SDS011;5056;44.272;19.892;2022-11-20T11:49:20;27.57;;;23.80;;
10031;SDS011;5056;44.272;19.892;2022-11-20T11:51:52;28.10;;;22.93;;
10031;SDS011;5056;44.272;19.892;2022-11-20T11:54:28;30.73;;;25.13;;
10031;SDS011;5056;44.272;19.892;2022-11-20T11:56:59;37.77;;;28.93;;
10031;SDS011;5056;44.272;19.892;2022-11-20T11:59:33;36.40;;;27.80;;
10031;SDS011;5056;44.272;19.892;2022-11-20T12:02:15;35.27;;;28.80;;
10031;SDS011;5056;44.272;19.892;2022-11-20T12:04:57;32.07;;;25.93;;
10031;SDS011;5056;44.272;19.892;2022-11-20T12:07:29;75.30;;;52.17;;
10031;SDS011;5056;44.272;19.892;2022-11-20T12:10:04;77.57;;;51.20;;
10031;SDS011;5056;44.272;19.892;2022-11-20T12:12:36;49.10;;;37.00;;
10031;SDS011;5056;44.272;19.892;2022-11-20T12:15:08;31.93;;;26.60;;
10031;SDS011;5056;44.272;19.892;2022-11-20T12:17:38;34.77;;;29.43;;
10031;SDS011;5056;44.272;19.892;2022-11-20T12:20:10;30.90;;;25.93;;
10031;SDS011;5056;44.272;19.892;2022-11-20T12:22:40;24.00;;;21.43;;
10031;SDS011;5056;44.272;19.892;2022-11-20T12:25:15;22.83;;;20.40;;
10031;SDS011;5056;44.272;19.892;2022-11-20T12:28:09;19.33;;;17.47;;
10031;SDS011;5056;44.272;19.892;2022-11-20T12:30:55;16.67;;;15.07;;
10031;SDS011;5056;44.272;19.892;2022-11-20T12:33:38;26.23;;;22.73;;
10031;SDS011;5056;44.272;19.892;2022-11-20T12:36:17;21.40;;;17.93;;
10031;SDS011;5056;44.272;19.892;2022-11-20T12:41:45;24.73;;;20.43;;
10031;SDS011;5056;44.272;19.892;2022-11-20T12:45:02;21.43;;;19.13;;
10031;SDS011;5056;44.272;19.892;2022-11-20T12:47:57;20.83;;;18.53;;
10031;SDS011;5056;44.272;19.892;2022-11-20T12:50:38;21.43;;;19.17;;
10031;SDS011;5056;44.272;19.892;2022-11-20T12:53:16;21.43;;;19.20;;
10031;SDS011;5056;44.272;19.892;2022-11-20T12:55:51;21.70;;;19.03;;
10031;SDS011;5056;44.272;19.892;2022-11-20T12:58:26;25.97;;;22.00;;
10031;SDS011;5056;44.272;19.892;2022-11-20T13:01:02;21.53;;;18.10;;
10031;SDS011;5056;44.272;19.892;2022-11-20T13:03:37;21.63;;;18.97;;
10031;SDS011;5056;44.272;19.892;2022-11-20T13:06:11;21.00;;;17.37;;
10031;SDS011;5056;44.272;19.892;2022-11-20T13:08:41;18.53;;;16.27;;
10031;SDS011;5056;44.272;19.892;2022-11-20T13:11:11;17.03;;;14.50;;
10031;SDS011;5056;44.272;19.892;2022-11-20T13:13:44;19.53;;;16.07;;
10031;SDS011;5056;44.272;19.892;2022-11-20T13:16:19;20.47;;;17.00;;
10031;SDS011;5056;44.272;19.892;2022-11-20T13:18:50;19.30;;;16.07;;
10031;SDS011;5056;44.272;19.892;2022-11-20T13:21:20;21.50;;;18.10;;
10031;SDS011;5056;44.272;19.892;2022-11-20T13:23:48;19.80;;;16.40;;
10031;SDS011;5056;44.272;19.892;2022-11-20T13:26:16;21.33;;;17.73;;
10031;SDS011;5056;44.272;19.892;2022-11-20T13:28:46;21.13;;;18.83;;
10031;SDS011;5056;44.272;19.892;2022-11-20T13:31:32;19.17;;;17.00;;
10031;SDS011;5056;44.272;19.892;2022-11-20T13:34:03;18.53;;;16.63;;
10031;SDS011;5056;44.272;19.892;2022-11-20T13:36:32;18.20;;;16.30;;
10031;SDS011;5056;44.272;19.892;2022-11-20T13:39:02;19.10;;;16.67;;
10031;SDS011;5056;44.272;19.892;2022-11-20T13:41:30;20.47;;;17.67;;
10031;SDS011;5056;44.272;19.892;2022-11-20T13:44:04;17.30;;;14.13;;
10031;SDS011;5056;44.272;19.892;2022-11-20T13:46:36;16.17;;;13.83;;
10031;SDS011;5056;44.272;19.892;2022-11-20T13:49:08;21.67;;;16.73;;
10031;SDS011;5056;44.272;19.892;2022-11-20T13:51:40;19.43;;;17.37;;
10031;SDS011;5056;44.272;19.892;2022-11-20T13:54:22;19.43;;;16.03;;
10031;SDS011;5056;44.272;19.892;2022-11-20T13:57:10;17.17;;;15.37;;
10031;SDS011;5056;44.272;19.892;2022-11-20T13:59:52;18.47;;;16.37;;
10031;SDS011;5056;44.272;19.892;2022-11-20T14:02:25;19.60;;;17.50;;
10031;SDS011;5056;44.272;19.892;2022-11-20T14:04:54;24.77;;;22.00;;
10031;SDS011;5056;44.272;19.892;2022-11-20T14:07:27;18.50;;;16.50;;
10031;SDS011;5056;44.272;19.892;2022-11-20T14:09:59;20.93;;;15.47;;
10031;SDS011;5056;44.272;19.892;2022-11-20T14:12:27;19.27;;;16.50;;
10031;SDS011;5056;44.272;19.892;2022-11-20T14:14:57;18.93;;;16.40;;
10031;SDS011;5056;44.272;19.892;2022-11-20T14:17:29;22.30;;;17.77;;
10031;SDS011;5056;44.272;19.892;2022-11-20T14:19:58;18.93;;;16.93;;
10031;SDS011;5056;44.272;19.892;2022-11-20T14:22:30;18.70;;;16.33;;
10031;SDS011;5056;44.272;19.892;2022-11-20T14:25:02;21.33;;;18.40;;
10031;SDS011;5056;44.272;19.892;2022-11-20T14:27:32;30.37;;;20.53;;
10031;SDS011;5056;44.272;19.892;2022-11-20T14:30:02;24.90;;;18.57;;
10031;SDS011;5056;44.272;19.892;2022-11-20T14:32:31;22.03;;;18.33;;
10031;SDS011;5056;44.272;19.892;2022-11-20T14:34:59;17.63;;;15.10;;
10031;SDS011;5056;44.272;19.892;2022-11-20T14:37:45;19.23;;;17.23;;
10031;SDS011;5056;44.272;19.892;2022-11-20T14:40:22;20.90;;;18.63;;
10031;SDS011;5056;44.272;19.892;2022-11-20T14:42:52;22.67;;;19.53;;
10031;SDS011;5056;44.272;19.892;2022-11-20T14:45:20;19.63;;;16.73;;
10031;SDS011;5056;44.272;19.892;2022-11-20T14:47:48;23.43;;;19.37;;
10031;SDS011;5056;44.272;19.892;2022-11-20T14:50:18;25.40;;;21.93;;
10031;SDS011;5056;44.272;19.892;2022-11-20T14:52:51;31.13;;;25.70;;
10031;SDS011;5056;44.272;19.892;2022-11-20T14:55:27;34.93;;;29.57;;
10031;SDS011;5056;44.272;19.892;2022-11-20T14:57:57;41.87;;;36.30;;
10031;SDS011;5056;44.272;19.892;2022-11-20T15:00:26;39.83;;;34.10;;
10031;SDS011;5056;44.272;19.892;2022-11-20T15:03:02;34.27;;;29.47;;
10031;SDS011;5056;44.272;19.892;2022-11-20T15:05:46;39.83;;;34.97;;